Time;durP1;ratioP1;P1;durP2;ratioP2;P2;SDS_P1;SDS_P2;PMS_P1;PMS_P2;Temp;Humidity;BMP_temperature;BMP_pressure;BME280_temperature;BME280_humidity;BME280_pressure;Samples;Min_cycle;Max_cycle;Signal;HPM_P1;HPM_P2
2021/04/16 00:02:07;;;;;;;8.13;4.88;;;;;;;6.51;47.26;100374.84;5069012;28;20024;-22
2021/04/16 00:04:32;;;;;;;8.38;5.30;;;;;;;6.37;46.70;100373.03;5069020;28;20028;-23
2021/04/16 00:06:58;;;;;;;8.73;5.20;;;;;;;6.30;46.05;100366.84;5069221;28;20086;-23
2021/04/16 00:09:24;;;;;;;7.82;5.40;;;;;;;6.41;46.20;100369.84;5069056;28;20029;-23
2021/04/16 00:11:50;;;;;;;8.25;4.70;;;;;;;6.18;46.86;100347.94;5068802;28;20031;-23
2021/04/16 00:14:15;;;;;;;8.57;5.00;;;;;;;6.20;46.51;100367.13;5068432;28;20119;-23
2021/04/16 00:16:41;;;;;;;9.23;5.40;;;;;;;6.18;47.34;100366.47;5068848;28;20492;-23
2021/04/16 00:19:06;;;;;;;8.25;4.78;;;;;;;6.18;47.18;100374.44;5050699;28;20036;-23
2021/04/16 00:21:32;;;;;;;8.35;4.95;;;;;;;6.20;47.26;100377.72;5068682;28;20031;-22
2021/04/16 00:23:58;;;;;;;8.30;4.90;;;;;;;6.31;47.20;100385.19;5051207;28;20067;-23
2021/04/16 00:26:23;;;;;;;8.85;4.93;;;;;;;6.09;49.41;100380.81;5068440;28;20152;-23
2021/04/16 00:28:49;;;;;;;8.77;5.30;;;;;;;6.18;50.19;100364.66;5068714;28;20033;-23
2021/04/16 00:31:20;;;;;;;8.70;4.97;;;;;;;6.33;50.66;100377.88;5068719;28;20101;-21
2021/04/16 00:33:47;;;;;;;8.80;5.55;;;;;;;6.35;49.55;100389.13;5068337;28;20043;-23
2021/04/16 00:36:13;;;;;;;8.85;5.40;;;;;;;6.37;50.33;100389.75;5068561;28;20032;-23
2021/04/16 00:38:38;;;;;;;10.02;5.60;;;;;;;6.20;50.98;100388.31;5068216;28;20111;-23
2021/04/16 00:41:06;;;;;;;10.52;5.63;;;;;;;6.54;49.37;100392.22;5068353;28;20060;-23
2021/04/16 00:43:33;;;;;;;8.93;5.95;;;;;;;6.57;48.88;100370.66;5068318;28;20115;-23
2021/04/16 00:46:10;;;;;;;9.50;6.13;;;;;;;6.83;48.86;100389.53;5050206;28;20127;-23
2021/04/16 00:48:37;;;;;;;10.07;6.30;;;;;;;6.61;49.30;100375.41;5068497;28;20126;-24
2021/04/16 00:51:05;;;;;;;10.38;6.22;;;;;;;6.84;48.40;100393.84;5033674;28;20140;-23
2021/04/16 00:53:30;;;;;;;10.43;6.40;;;;;;;6.99;47.87;100372.56;5050375;28;20030;-23
2021/04/16 00:55:56;;;;;;;12.18;6.55;;;;;;;7.08;47.19;100393.69;5067867;28;20033;-23
2021/04/16 00:58:23;;;;;;;8.38;6.05;;;;;;;7.01;47.73;100397.06;5033659;28;20029;-23
2021/04/16 01:00:49;;;;;;;10.65;6.20;;;;;;;6.31;49.78;100379.88;5033280;28;20074;-23
2021/04/16 01:03:14;;;;;;;11.73;6.05;;;;;;;5.90;50.62;100382.13;5067879;28;20496;-23
2021/04/16 01:05:40;;;;;;;9.27;5.68;;;;;;;5.53;51.21;100376.66;5067852;28;20028;-23
2021/04/16 01:08:06;;;;;;;8.02;5.63;;;;;;;5.27;51.60;100381.50;5067804;28;20031;-22
2021/04/16 01:10:31;;;;;;;8.07;5.63;;;;;;;5.56;52.19;100408.06;5067648;28;20473;-22
2021/04/16 01:12:57;;;;;;;8.10;5.43;;;;;;;5.87;51.37;100401.84;5067943;28;20034;-23
2021/04/16 01:15:36;;;;;;;13.70;7.15;;;;;;;6.27;51.17;100405.09;5049668;28;20111;-23
2021/04/16 01:18:13;;;;;;;13.00;6.75;;;;;;;5.77;51.98;100393.34;5035921;28;20025;-23
2021/04/16 01:20:40;;;;;;;11.13;6.45;;;;;;;5.26;51.93;100408.94;5033965;28;20151;-23
2021/04/16 01:23:28;;;;;;;9.40;5.38;;;;;;;5.24;50.81;100409.94;5016907;28;20064;-23
2021/04/16 01:25:55;;;;;;;8.43;5.70;;;;;;;5.07;50.75;100381.97;5035101;28;20032;-23
2021/04/16 01:28:21;;;;;;;9.75;5.38;;;;;;;5.19;50.97;100400.88;5033112;28;20041;-23
2021/04/16 01:30:56;;;;;;;8.85;5.15;;;;;;;5.27;50.28;100402.66;5067385;28;20037;-22
2021/04/16 01:33:23;;;;;;;9.32;5.68;;;;;;;5.32;49.96;100377.31;5067266;28;20093;-23
2021/04/16 01:35:48;;;;;;;9.82;5.50;;;;;;;5.52;49.31;100412.06;5067577;28;20389;-22
2021/04/16 01:38:14;;;;;;;7.85;5.20;;;;;;;5.44;49.59;100409.47;5066920;28;20614;-21
2021/04/16 01:40:39;;;;;;;13.18;6.05;;;;;;;5.48;50.27;100410.78;5049469;28;20544;-22
2021/04/16 01:43:18;;;;;;;10.80;5.50;;;;;;;5.37;49.95;100408.53;5067195;28;20032;-20
2021/04/16 01:45:44;;;;;;;11.65;6.80;;;;;;;5.52;49.93;100411.25;5067094;28;20036;-23
2021/04/16 01:48:10;;;;;;;8.45;5.35;;;;;;;5.67;51.02;100414.75;5066881;28;20025;-23
2021/04/16 01:50:35;;;;;;;10.07;6.10;;;;;;;5.90;49.54;100406.75;5066771;28;20056;-22
2021/04/16 01:53:02;;;;;;;12.93;6.43;;;;;;;6.18;49.36;100395.63;5049138;28;20035;-22
2021/04/16 01:55:28;;;;;;;10.45;6.10;;;;;;;6.21;48.12;100411.13;5067539;28;20036;-22
2021/04/16 01:57:53;;;;;;;9.13;5.63;;;;;;;6.41;48.58;100430.78;5067106;28;20108;-22
2021/04/16 02:00:32;;;;;;;10.23;6.25;;;;;;;6.49;47.82;100431.69;5066815;28;20381;-21
2021/04/16 02:02:57;;;;;;;9.77;6.07;;;;;;;6.57;47.56;100408.56;5067133;28;20028;-22
2021/04/16 02:05:23;;;;;;;9.13;6.40;;;;;;;6.63;48.32;100414.97;5067195;28;20136;-22
2021/04/16 02:07:48;;;;;;;9.18;6.00;;;;;;;6.58;48.63;100406.75;5049327;28;20113;-22
2021/04/16 02:10:14;;;;;;;8.82;5.90;;;;;;;6.66;48.51;100430.50;5048569;28;20033;-23
2021/04/16 02:12:40;;;;;;;10.73;6.47;;;;;;;6.30;49.31;100407.41;5066924;28;20024;-23
2021/04/16 02:15:06;;;;;;;11.40;7.55;;;;;;;6.31;49.50;100426.75;5066808;28;20036;-23
2021/04/16 02:17:31;;;;;;;11.75;7.13;;;;;;;6.47;49.77;100437.16;5048876;28;20114;-23
2021/04/16 02:19:58;;;;;;;11.13;7.05;;;;;;;6.23;50.66;100436.44;5066843;28;20407;-22
2021/04/16 02:22:25;;;;;;;11.40;7.63;;;;;;;6.09;50.87;100439.06;5066823;28;20029;-22
2021/04/16 02:24:50;;;;;;;15.27;10.55;;;;;;;5.46;52.71;100441.06;5066842;28;20036;-23
2021/04/16 02:27:17;;;;;;;14.52;9.00;;;;;;;5.73;52.66;100434.38;5066725;28;20056;-23
2021/04/16 02:29:43;;;;;;;13.30;9.68;;;;;;;5.60;52.68;100446.41;5048831;28;20550;-22
2021/04/16 02:32:09;;;;;;;14.20;9.15;;;;;;;5.61;51.69;100426.03;5048670;28;20025;-22
2021/04/16 02:34:34;;;;;;;12.60;8.20;;;;;;;5.29;52.17;100417.38;5066684;28;20027;-22
2021/04/16 02:37:04;;;;;;;14.65;9.10;;;;;;;5.62;52.39;100422.41;5069833;28;20078;-22
2021/04/16 02:39:29;;;;;;;12.68;8.02;;;;;;;5.49;52.26;100444.16;5070454;28;20041;-22
2021/04/16 02:41:55;;;;;;;14.05;9.27;;;;;;;5.33;54.08;100445.09;5070732;28;20512;-23
2021/04/16 02:44:21;;;;;;;15.45;9.55;;;;;;;5.21;53.61;100426.16;5070267;28;20487;-22
2021/04/16 02:46:46;;;;;;;21.15;13.13;;;;;;;5.12;54.44;100458.91;5070400;28;20036;-21
2021/04/16 02:49:12;;;;;;;29.13;19.55;;;;;;;5.01;54.65;100456.69;5052843;28;20029;-22
2021/04/16 02:51:37;;;;;;;157.35;69.35;;;;;;;5.33;53.71;100458.31;5052356;28;20181;-23
2021/04/16 02:54:04;;;;;;;26.00;15.75;;;;;;;5.38;52.64;100455.97;5070214;28;20043;-21
2021/04/16 02:56:29;;;;;;;20.63;11.43;;;;;;;5.22;53.22;100453.41;5070227;28;20029;-21
2021/04/16 02:58:56;;;;;;;16.05;11.70;;;;;;;4.93;54.22;100440.84;5070241;28;20020;-23
2021/04/16 03:01:22;;;;;;;20.30;11.77;;;;;;;5.40;53.12;100461.09;5070432;28;20095;-22
2021/04/16 03:03:47;;;;;;;17.33;11.40;;;;;;;5.35;53.64;100432.53;5070397;28;20491;-22
2021/04/16 03:06:13;;;;;;;17.83;10.88;;;;;;;5.62;53.20;100460.28;5069977;28;20024;-22
2021/04/16 03:08:38;;;;;;;19.65;11.77;;;;;;;5.72;51.82;100453.91;5070087;28;20071;-22
2021/04/16 03:11:08;;;;;;;19.52;11.45;;;;;;;5.34;53.07;100445.91;5070049;28;20033;-22
2021/04/16 03:13:33;;;;;;;18.85;10.23;;;;;;;5.34;52.97;100456.50;5069891;28;20043;-22
2021/04/16 03:15:59;;;;;;;13.80;9.80;;;;;;;5.41;52.51;100452.13;5069818;28;20032;-23
2021/04/16 03:18:25;;;;;;;16.67;10.07;;;;;;;5.53;51.98;100468.44;5069791;28;20028;-22
2021/04/16 03:20:50;;;;;;;14.55;9.30;;;;;;;5.63;52.04;100477.78;5070284;28;20119;-23
2021/04/16 03:23:16;;;;;;;18.65;11.98;;;;;;;5.63;52.58;100483.06;5070017;28;20063;-23
2021/04/16 03:25:41;;;;;;;29.95;19.55;;;;;;;5.59;52.45;100481.78;5069687;28;20107;-21
2021/04/16 03:28:07;;;;;;;27.33;17.35;;;;;;;5.28;54.03;100487.09;5069490;28;20499;-23
2021/04/16 03:30:33;;;;;;;25.85;17.17;;;;;;;5.34;53.60;100493.53;5051870;28;20415;-22
2021/04/16 03:32:58;;;;;;;29.05;15.50;;;;;;;4.91;54.52;100477.22;5069809;28;20033;-21
2021/04/16 03:35:24;;;;;;;26.02;14.40;;;;;;;5.12;54.22;100482.72;5069781;28;20060;-23
2021/04/16 03:37:50;;;;;;;23.75;14.65;;;;;;;5.29;53.66;100479.97;5069381;28;20060;-22
2021/04/16 03:40:17;;;;;;;32.47;17.83;;;;;;;5.33;53.10;100476.00;5069170;28;20024;-22
2021/04/16 03:42:43;;;;;;;22.27;12.32;;;;;;;5.59;52.67;100484.41;5034839;28;20443;-22
2021/04/16 03:45:09;;;;;;;19.58;12.00;;;;;;;5.45;53.48;100487.81;5068742;28;20035;-20
2021/04/16 03:47:34;;;;;;;17.83;12.43;;;;;;;5.08;54.26;100494.63;5068147;28;20093;-21
2021/04/16 03:50:00;;;;;;;20.92;12.85;;;;;;;5.30;53.17;100495.69;5069531;28;20028;-22
2021/04/16 03:52:26;;;;;;;18.40;10.93;;;;;;;5.22;53.11;100496.53;5069043;28;20207;-22
2021/04/16 03:54:52;;;;;;;16.05;10.40;;;;;;;5.16;53.51;100491.13;5069195;28;20033;-21
2021/04/16 03:57:18;;;;;;;14.25;9.10;;;;;;;5.16;53.72;100491.94;5069119;28;20409;-22
2021/04/16 03:59:44;;;;;;;12.90;9.07;;;;;;;5.08;54.00;100493.81;5068990;28;20029;-22
2021/04/16 04:02:10;;;;;;;15.13;10.43;;;;;;;5.30;53.26;100492.22;5068984;28;20411;-22
2021/04/16 04:04:35;;;;;;;19.15;11.50;;;;;;;5.54;52.73;100499.19;5069288;28;20483;-23
2021/04/16 04:07:01;;;;;;;19.98;12.50;;;;;;;5.34;52.66;100493.53;5069014;28;20047;-22
2021/04/16 04:09:26;;;;;;;19.25;13.00;;;;;;;5.10;53.81;100486.53;5069028;28;20029;-22
2021/04/16 04:11:52;;;;;;;18.63;13.10;;;;;;;5.12;53.55;100498.56;5068818;28;20028;-22
2021/04/16 04:14:19;;;;;;;28.17;17.17;;;;;;;5.23;54.07;100506.13;5050524;28;20420;-22
2021/04/16 04:16:52;;;;;;;44.95;27.88;;;;;;;5.34;52.82;100477.66;5068891;28;20034;-22
2021/04/16 04:19:19;;;;;;;38.45;23.40;;;;;;;5.53;52.42;100503.63;5068822;28;20025;-22
2021/04/16 04:21:46;;;;;;;38.50;23.02;;;;;;;5.36;52.79;100476.47;5050909;28;20024;-22
2021/04/16 04:24:11;;;;;;;28.33;20.00;;;;;;;5.52;52.47;100512.59;5068497;28;20033;-22
2021/04/16 04:26:37;;;;;;;17.15;14.00;;;;;;;5.86;51.50;100506.06;5068544;28;20033;-22
2021/04/16 04:29:02;;;;;;;19.67;12.88;;;;;;;5.76;51.38;100476.38;5068588;28;20028;-22
2021/04/16 04:31:28;;;;;;;19.60;11.82;;;;;;;5.80;51.96;100497.03;5069021;28;20107;-22
2021/04/16 04:33:53;;;;;;;15.18;10.38;;;;;;;6.09;51.65;100492.00;5068470;28;20028;-22
2021/04/16 04:36:19;;;;;;;14.50;9.38;;;;;;;6.30;50.94;100516.00;5068403;28;20470;-22
2021/04/16 04:38:44;;;;;;;14.10;9.60;;;;;;;6.22;51.15;100508.13;5068384;28;20062;-22
2021/04/16 04:41:10;;;;;;;14.23;10.18;;;;;;;6.16;51.75;100511.50;5068563;28;20028;-23
2021/04/16 04:43:35;;;;;;;14.38;9.05;;;;;;;6.16;50.86;100508.84;5050441;28;20032;-21
2021/04/16 04:46:01;;;;;;;14.35;9.73;;;;;;;5.90;51.87;100499.41;5050753;28;20029;-22
2021/04/16 04:48:26;;;;;;;13.73;9.40;;;;;;;6.00;51.97;100518.56;5068004;28;20071;-23
2021/04/16 04:50:52;;;;;;;14.82;9.90;;;;;;;6.01;52.56;100525.50;5068243;28;20056;-23
2021/04/16 04:53:17;;;;;;;13.77;9.15;;;;;;;6.33;52.28;100520.09;5067925;28;20052;-22
2021/04/16 04:55:43;;;;;;;15.90;9.40;;;;;;;6.10;53.00;100531.56;5050203;28;20032;-22
2021/04/16 04:58:08;;;;;;;12.05;8.63;;;;;;;6.44;51.29;100538.22;5067684;28;20056;-22
2021/04/16 05:00:34;;;;;;;14.85;9.60;;;;;;;6.57;51.12;100543.72;5050339;28;20411;-23
2021/04/16 05:03:00;;;;;;;12.82;9.10;;;;;;;6.66;50.69;100536.53;5068134;28;20059;-22
2021/04/16 05:05:25;;;;;;;13.07;8.90;;;;;;;6.71;51.46;100525.38;5068037;28;20032;-22
2021/04/16 05:07:51;;;;;;;14.43;8.90;;;;;;;6.54;50.92;100507.00;5067788;28;20408;-22
2021/04/16 05:10:17;;;;;;;12.55;8.27;;;;;;;6.82;51.68;100524.91;5033057;28;20582;-20
2021/04/16 05:12:42;;;;;;;12.80;8.75;;;;;;;6.82;50.70;100546.97;5067831;28;20024;-23
2021/04/16 05:15:09;;;;;;;16.77;9.23;;;;;;;6.88;50.78;100545.38;5067875;28;20029;-22
2021/04/16 05:17:35;;;;;;;13.90;8.98;;;;;;;7.08;50.42;100539.53;5067801;28;20029;-22
2021/04/16 05:20:01;;;;;;;15.55;9.60;;;;;;;6.94;50.20;100522.63;5067714;28;20081;-21
2021/04/16 05:22:26;;;;;;;16.25;9.80;;;;;;;7.09;50.69;100531.41;5067484;28;20036;-21
2021/04/16 05:24:52;;;;;;;15.45;8.82;;;;;;;6.96;51.03;100516.13;5067876;28;20067;-23
2021/04/16 05:27:18;;;;;;;17.48;9.75;;;;;;;7.28;51.55;100540.59;5067419;28;20036;-23
2021/04/16 05:29:44;;;;;;;15.10;9.40;;;;;;;7.29;50.46;100528.16;5067560;28;20032;-22
2021/04/16 05:32:10;;;;;;;14.05;9.48;;;;;;;7.52;50.98;100541.28;5049487;28;20093;-22
2021/04/16 05:34:35;;;;;;;14.43;8.93;;;;;;;7.46;51.07;100516.34;5049510;28;20131;-22
2021/04/16 05:37:02;;;;;;;13.77;9.60;;;;;;;7.77;50.13;100523.19;5049459;28;20029;-21
2021/04/16 05:39:27;;;;;;;12.30;8.73;;;;;;;7.92;49.54;100539.06;5067461;28;20118;-22
2021/04/16 05:41:53;;;;;;;12.65;9.27;;;;;;;7.80;50.00;100525.44;5067301;28;20060;-22
2021/04/16 05:44:19;;;;;;;14.02;9.40;;;;;;;7.94;49.91;100545.00;5067047;28;20028;-22
2021/04/16 05:46:44;;;;;;;16.42;8.02;;;;;;;7.80;50.82;100544.03;5067411;28;20035;-22
2021/04/16 05:49:10;;;;;;;12.48;8.88;;;;;;;7.75;49.24;100541.13;5067197;28;20119;-22
2021/04/16 05:51:36;;;;;;;12.00;8.82;;;;;;;7.79;50.61;100537.09;5067066;28;20091;-22
2021/04/16 05:54:02;;;;;;;13.25;9.70;;;;;;;8.23;49.18;100538.72;5067179;28;20135;-21
2021/04/16 05:56:28;;;;;;;13.25;9.43;;;;;;;8.57;48.44;100534.50;5067359;28;20039;-22
2021/04/16 05:58:53;;;;;;;16.13;10.27;;;;;;;8.56;47.48;100543.47;5067233;28;20025;-22
2021/04/16 06:01:19;;;;;;;11.38;7.75;;;;;;;8.45;46.67;100542.19;5049212;28;20032;-22
2021/04/16 06:03:45;;;;;;;18.65;8.85;;;;;;;8.71;46.83;100533.56;5049190;28;20032;-20
2021/04/16 06:06:11;;;;;;;13.57;8.80;;;;;;;8.74;46.99;100527.84;5049053;28;20062;-22
2021/04/16 06:08:37;;;;;;;14.70;9.27;;;;;;;8.81;46.67;100531.41;5067161;28;20029;-22
2021/04/16 06:11:03;;;;;;;12.90;7.82;;;;;;;8.45;47.48;100515.59;5052220;28;20075;-22
2021/04/16 06:13:29;;;;;;;11.43;7.00;;;;;;;8.36;45.99;100533.50;5073822;28;20047;-22
2021/04/16 06:15:55;;;;;;;11.00;6.78;;;;;;;8.41;45.15;100533.78;5073601;28;20492;-22
2021/04/16 06:18:21;;;;;;;9.95;6.63;;;;;;;8.29;44.87;100515.88;5055377;28;20079;-22
2021/04/16 06:20:46;;;;;;;10.15;6.55;;;;;;;8.42;45.45;100535.44;5055775;28;20035;-22
2021/04/16 06:23:12;;;;;;;9.68;6.63;;;;;;;8.68;44.97;100520.66;5073342;28;20056;-22
2021/04/16 06:25:37;;;;;;;8.93;7.00;;;;;;;9.12;44.50;100521.31;5073587;28;20062;-22
2021/04/16 06:28:03;;;;;;;8.82;6.32;;;;;;;8.91;43.45;100503.59;5073528;28;20085;-22
2021/04/16 06:30:29;;;;;;;11.35;6.55;;;;;;;9.00;42.94;100510.41;5073351;28;20683;-22
2021/04/16 06:33:00;;;;;;;11.77;7.07;;;;;;;9.11;43.92;100520.47;5073507;28;20428;-22
2021/04/16 06:35:26;;;;;;;9.60;6.78;;;;;;;9.33;44.08;100507.88;5073328;28;20086;-22
2021/04/16 06:37:51;;;;;;;11.52;6.50;;;;;;;9.19;43.32;100533.66;5055498;28;20450;-22
2021/04/16 06:40:17;;;;;;;12.68;6.93;;;;;;;9.28;42.96;100504.19;5073029;28;20039;-22
2021/04/16 06:42:42;;;;;;;10.43;6.28;;;;;;;9.43;41.76;100528.81;5073239;28;20024;-23
2021/04/16 06:45:12;;;;;;;9.10;6.32;;;;;;;9.75;42.72;100537.91;5038783;28;20028;-22
2021/04/16 06:47:50;;;;;;;10.73;6.25;;;;;;;9.68;42.26;100504.28;5055962;28;20028;-22
2021/04/16 06:50:16;;;;;;;9.98;6.22;;;;;;;9.63;42.30;100526.19;5055741;28;20048;-22
2021/04/16 06:52:54;;;;;;;9.10;6.10;;;;;;;9.34;42.09;100511.38;5073243;28;20051;-22
2021/04/16 06:55:30;;;;;;;;;;;;;;;9.41;40.69;100526.34;5056662;28;20039;-22
2021/04/16 06:58:14;;;;;;;9.50;5.75;;;;;;;9.77;44.14;100529.72;5072976;28;19915;-22
2021/04/16 07:01:18;;;;;;;10.07;6.22;;;;;;;9.92;42.41;100532.19;5039301;28;20500;-23
2021/04/16 07:03:46;;;;;;;8.82;6.18;;;;;;;9.92;40.16;100511.69;5073329;28;20031;-22
2021/04/16 07:06:20;;;;;;;9.10;6.10;;;;;;;9.98;42.28;100534.88;5038761;28;20067;-22
2021/04/16 07:08:51;;;;;;;8.50;6.00;;;;;;;10.16;40.00;100520.13;5055163;28;20382;-22
2021/04/16 07:11:21;;;;;;;10.10;6.68;;;;;;;10.09;39.71;100537.94;5073297;28;20040;-21
2021/04/16 07:13:46;;;;;;;8.30;5.95;;;;;;;9.85;38.46;100549.00;5055047;28;20419;-22
2021/04/16 07:16:12;;;;;;;11.13;6.10;;;;;;;10.20;39.03;100534.69;5073041;28;20060;-20
2021/04/16 07:18:42;;;;;;;10.60;6.35;;;;;;;10.36;39.72;100539.63;5073196;28;20047;-22
2021/04/16 07:21:08;;;;;;;9.40;5.63;;;;;;;10.24;39.31;100530.59;5038900;28;20464;-22
2021/04/16 07:23:46;;;;;;;10.95;5.63;;;;;;;10.27;39.90;100532.81;5068644;28;20123;-22
2021/04/16 07:26:32;;;;;;;10.05;6.68;;;;;;;10.71;40.53;100539.41;5052862;28;20031;-22
2021/04/16 07:28:58;;;;;;;9.45;6.20;;;;;;;11.36;40.07;100535.88;5069839;28;20028;-22
2021/04/16 07:31:36;;;;;;;8.40;6.03;;;;;;;11.73;37.51;100554.81;5069677;28;20036;-22
2021/04/16 07:34:02;;;;;;;10.17;6.07;;;;;;;11.16;38.21;100501.28;5069879;28;20021;-22
2021/04/16 07:36:35;;;;;;;12.20;5.72;;;;;;;11.10;39.47;100502.94;5051724;28;20766;-22
2021/04/16 07:39:13;;;;;;;10.95;5.85;;;;;;;11.16;38.69;100539.47;5035188;28;20413;-21
2021/04/16 07:41:50;;;;;;;9.05;5.57;;;;;;;11.08;40.02;100523.69;5069589;28;20025;-22
2021/04/16 07:44:22;;;;;;;7.82;5.75;;;;;;;11.10;37.95;100518.97;5069354;28;20040;-22
2021/04/16 07:46:50;;;;;;;8.10;5.38;;;;;;;11.34;38.32;100541.47;5051855;28;20189;-22
2021/04/16 07:49:24;;;;;;;10.73;5.80;;;;;;;11.49;37.83;100530.50;5034700;28;20040;-22
2021/04/16 07:51:53;;;;;;;8.63;5.80;;;;;;;11.62;39.38;100533.09;5069378;28;20061;-22
2021/04/16 07:54:26;;;;;;;8.00;5.05;;;;;;;11.81;36.60;100530.50;5069177;28;20841;-22
2021/04/16 07:57:07;;;;;;;6.82;4.82;;;;;;;11.43;37.28;100528.69;5069497;28;20444;-22
2021/04/16 07:59:33;;;;;;;8.30;4.95;;;;;;;11.81;35.55;100531.34;5069147;28;20029;-22
2021/04/16 08:01:58;;;;;;;7.78;5.50;;;;;;;12.08;37.82;100535.72;5035018;28;20478;-22
2021/04/16 08:04:24;;;;;;;7.10;5.15;;;;;;;12.38;36.38;100536.72;5034401;28;20093;-22
2021/04/16 08:06:51;;;;;;;8.23;5.40;;;;;;;11.97;35.06;100507.81;5068824;28;20028;-22
2021/04/16 08:09:25;;;;;;;10.10;5.22;;;;;;;12.13;37.05;100544.72;5050880;28;20093;-21
2021/04/16 08:12:13;;;;;;;9.23;5.43;;;;;;;12.00;35.92;100518.91;5068958;28;20032;-21
2021/04/16 08:14:41;;;;;;;8.95;5.05;;;;;;;12.25;34.48;100510.88;5055988;28;20127;-21
2021/04/16 08:17:26;;;;;;;;;;;;;;;12.70;34.90;100520.56;5069288;28;20036;-22
2021/04/16 08:19:51;;;;;;;10.32;4.97;;;;;;;12.39;34.42;100527.63;5050782;28;19912;-21
2021/04/16 08:22:27;;;;;;;7.50;4.82;;;;;;;12.78;35.97;100509.56;5068612;28;20024;-21
2021/04/16 08:25:02;;;;;;;8.20;4.97;;;;;;;13.26;36.33;100532.91;5051141;28;20035;-21
2021/04/16 08:27:43;;;;;;;7.88;4.18;;;;;;;13.45;32.82;100531.03;5051021;28;20416;-21
2021/04/16 08:30:08;;;;;;;8.32;5.05;;;;;;;13.04;33.74;100529.06;5050542;28;20119;-21
2021/04/16 08:32:42;;;;;;;8.48;4.32;;;;;;;13.43;33.86;100524.28;5068635;28;20111;-21
2021/04/16 08:35:43;;;;;;;6.05;3.95;;;;;;;13.08;33.01;100524.88;5068361;28;20101;-22
2021/04/16 08:38:10;;;;;;;6.25;4.00;;;;;;;12.97;32.87;100518.41;5036873;28;20369;-22
2021/04/16 08:40:39;;;;;;;7.43;4.57;;;;;;;13.23;34.36;100495.03;5050785;28;20036;-21
2021/04/16 08:43:05;;;;;;;6.78;3.97;;;;;;;13.26;32.29;100516.84;5068279;28;20054;-21
2021/04/16 08:45:33;;;;;;;7.72;4.13;;;;;;;13.50;29.12;100503.56;5050640;28;20476;-20
2021/04/16 08:48:22;;;;;;;10.40;5.82;;;;;;;13.99;32.00;100517.69;5068428;28;20029;-21
2021/04/16 08:50:59;;;;;;;6.55;3.88;;;;;;;14.13;29.69;100523.66;5050082;28;20056;-22
2021/04/16 08:53:25;;;;;;;6.97;3.65;;;;;;;13.86;31.01;100493.78;5050817;28;20047;-22
2021/04/16 08:55:54;;;;;;;7.25;4.20;;;;;;;13.78;28.85;100502.16;5067930;28;20052;-22
2021/04/16 08:58:25;;;;;;;6.55;3.58;;;;;;;14.19;32.40;100517.38;5034303;28;20416;-22
2021/04/16 09:00:54;;;;;;;5.93;3.80;;;;;;;13.98;28.66;100518.75;5067972;28;20033;-21
2021/04/16 09:03:25;;;;;;;7.30;5.00;;;;;;;13.96;29.25;100504.75;5033668;28;20504;-21
2021/04/16 09:05:58;;;;;;;6.30;4.05;;;;;;;13.96;31.82;100502.06;5067974;28;20602;-21
2021/04/16 09:08:42;;;;;;;7.97;4.50;;;;;;;13.88;29.15;100502.41;5049750;28;20029;-22
2021/04/16 09:11:09;;;;;;;5.43;3.53;;;;;;;14.20;29.48;100510.13;5049761;28;20029;-22
2021/04/16 09:13:38;;;;;;;6.28;3.53;;;;;;;14.27;27.24;100505.47;5049959;28;20042;-21
2021/04/16 09:16:16;;;;;;;6.80;3.67;;;;;;;14.85;27.05;100493.94;5067609;28;20028;-21
2021/04/16 09:18:48;;;;;;;10.15;5.97;;;;;;;14.60;29.88;100477.28;5067729;28;20032;-21
2021/04/16 09:21:25;;;;;;;8.05;4.18;;;;;;;14.25;30.81;100486.13;5049775;28;20089;-21
2021/04/16 09:23:59;;;;;;;6.82;4.38;;;;;;;14.09;31.59;100455.44;5067644;28;20028;-21
2021/04/16 09:26:43;;;;;;;8.25;4.32;;;;;;;14.19;31.09;100479.00;5067266;28;20043;-21
2021/04/16 09:29:08;;;;;;;5.50;4.03;;;;;;;14.54;29.64;100454.03;5067460;28;20492;-22
2021/04/16 09:31:48;;;;;;;6.40;4.40;;;;;;;15.14;30.36;100440.25;5033002;28;20063;-21
2021/04/16 09:34:18;;;;;;;7.53;4.22;;;;;;;15.70;29.85;100469.19;5067006;28;20036;-22
2021/04/16 09:36:49;;;;;;;6.25;3.72;;;;;;;15.56;31.56;100455.22;5067323;28;20036;-22
2021/04/16 09:39:32;;;;;;;6.55;4.10;;;;;;;15.86;31.67;100441.53;5067224;28;20021;-21
2021/04/16 09:41:58;;;;;;;5.53;3.58;;;;;;;15.99;30.56;100406.22;5050056;28;20033;-21
2021/04/16 09:44:26;;;;;;;6.07;3.70;;;;;;;16.11;29.94;100426.84;5049120;28;20028;-21
2021/04/16 09:46:52;;;;;;;6.13;3.40;;;;;;;15.84;27.00;100416.75;5066607;28;20415;-21
2021/04/16 09:49:24;;;;;;;6.03;3.80;;;;;;;16.13;29.03;100413.94;5049316;28;20048;-22
2021/04/16 09:51:53;;;;;;;9.73;3.45;;;;;;;15.99;26.86;100395.44;5067133;28;20510;-21
2021/04/16 09:54:21;;;;;;;7.82;3.80;;;;;;;16.38;26.68;100400.03;5032772;28;20028;-21
2021/04/16 09:57:02;;;;;;;4.75;3.28;;;;;;;16.18;25.88;100409.47;5067047;28;20028;-21
2021/04/16 09:59:34;;;;;;;5.28;3.50;;;;;;;16.43;27.07;100403.59;5067139;28;20046;-21
2021/04/16 10:05:03;;;;;;;6.93;4.00;;;;;;;17.23;28.18;100390.53;5067111;28;20086;-20
2021/04/16 10:07:51;;;;;;;5.85;3.70;;;;;;;15.99;28.93;100382.00;5067444;28;20040;-22
2021/04/16 10:10:36;;;;;;;;;;;;;;;16.35;26.33;100389.78;5049559;28;20039;-21
2021/04/16 10:13:12;;;;;;;6.78;3.80;;;;;;;17.01;26.77;100392.47;5067021;28;20058;-21
2021/04/16 10:15:40;;;;;;;6.38;3.00;;;;;;;17.16;25.36;100395.31;5067194;28;20044;-21
2021/04/16 10:18:11;;;;;;;5.95;3.60;;;;;;;17.92;25.86;100378.16;5067082;28;20519;-21
2021/04/16 10:20:41;;;;;;;5.57;3.25;;;;;;;18.38;24.46;100383.00;5049916;28;20597;-21
2021/04/16 10:23:33;;;;;;;6.30;3.38;;;;;;;17.58;25.81;100375.72;5049588;28;20044;-21
2021/04/16 11:16:57;;;;;;;8.27;4.00;;;;;;;18.59;24.01;100373.09;5049250;28;20059;-21
2021/04/16 12:38:01;;;;;;;7.93;3.15;;;;;;;20.29;22.08;100280.03;5047615;28;20523;-21
2021/04/16 12:40:27;;;;;;;6.10;3.33;;;;;;;19.92;21.51;100275.03;5030771;28;20120;-21
2021/04/16 12:42:57;;;;;;;7.18;3.40;;;;;;;19.49;22.69;100267.25;5048279;28;20123;-21
2021/04/16 12:45:23;;;;;;;7.80;3.40;;;;;;;19.85;21.95;100269.91;5048382;28;20057;-21
2021/04/16 12:47:50;;;;;;;6.88;3.55;;;;;;;19.51;22.62;100272.41;5048384;28;20090;-21
2021/04/16 12:50:17;;;;;;;7.03;3.70;;;;;;;20.01;22.07;100260.66;5050514;28;20033;-21
2021/04/16 12:52:42;;;;;;;6.78;3.33;;;;;;;20.67;20.30;100254.09;5067985;28;20037;-21
2021/04/16 12:55:08;;;;;;;6.28;3.25;;;;;;;20.40;21.78;100251.78;5068138;28;20035;-21
2021/04/16 12:57:43;;;;;;;6.45;3.55;;;;;;;20.46;21.36;100247.16;5068067;28;20050;-21
2021/04/16 13:00:13;;;;;;;5.97;2.85;;;;;;;20.73;21.74;100256.78;5050292;28;20028;-20
2021/04/16 13:02:39;;;;;;;5.47;3.10;;;;;;;20.43;22.88;100263.97;5034160;28;20041;-21
2021/04/16 13:05:06;;;;;;;8.90;3.58;;;;;;;19.95;21.88;100259.06;5050114;28;20029;-21
2021/04/16 13:07:32;;;;;;;4.97;2.90;;;;;;;19.70;24.88;100264.53;5067808;28;20403;-21
2021/04/16 13:09:57;;;;;;;5.32;3.05;;;;;;;19.74;24.16;100257.53;5068054;28;20036;-21
2021/04/16 13:12:23;;;;;;;7.25;3.60;;;;;;;19.67;23.92;100257.75;5067735;28;20067;-21
2021/04/16 13:14:49;;;;;;;7.22;3.42;;;;;;;20.16;23.75;100231.88;5067702;28;20115;-21
2021/04/16 13:17:23;;;;;;;5.68;2.90;;;;;;;20.55;22.59;100229.22;5067609;28;20064;-21
2021/04/16 13:19:48;;;;;;;6.45;3.22;;;;;;;20.90;20.76;100238.19;5049381;28;20090;-21
2021/04/16 13:22:15;;;;;;;6.25;3.22;;;;;;;21.44;21.11;100234.50;5032613;28;20024;-21
2021/04/16 13:24:42;;;;;;;6.03;3.13;;;;;;;21.07;20.18;100222.34;5067880;28;20530;-21
2021/04/16 13:27:09;;;;;;;6.50;2.70;;;;;;;20.93;21.46;100234.94;5067214;28;20464;-21
2021/04/16 13:29:35;;;;;;;5.53;3.05;;;;;;;20.42;22.62;100236.06;5067689;28;20037;-21
2021/04/16 13:32:01;;;;;;;6.93;3.60;;;;;;;20.45;22.70;100218.44;5067351;28;20112;-21
2021/04/16 13:34:26;;;;;;;5.38;3.10;;;;;;;20.44;22.84;100220.34;5049259;28;20037;-21
2021/04/16 13:36:52;;;;;;;5.40;3.15;;;;;;;19.84;23.89;100235.84;5049726;28;20031;-21
2021/04/16 13:39:18;;;;;;;5.80;3.30;;;;;;;19.08;23.54;100224.03;5032821;28;20097;-22
2021/04/16 13:41:43;;;;;;;6.30;3.17;;;;;;;19.36;23.37;100219.97;5067436;28;20031;-21
2021/04/16 13:44:09;;;;;;;6.53;3.05;;;;;;;18.83;24.88;100222.97;5067081;28;20037;-21
2021/04/16 13:46:36;;;;;;;6.43;3.03;;;;;;;18.27;25.06;100225.56;5067301;28;20071;-21